Wetterdaten: aktuell Mittwoch, 01.12.2021 19:10
Datum Zeit Temperatur Bodentemp. Luftfeuchte Luftdruck Niederschlag Windgeschw. Windrichtung Windrichtung Sonnenschein Nieder.dauer Evapotrans. Solarstrahl. Taupunkt Windchill Windböen
01.12.2021 19:10 5,6 °C 5,0 °C 97 % 973,2 hPa 0,4 l/m² 32,3 km/h (5 Bft) SW 225 ° 0 min 29 min 0 mm 0 W/m² 5,2 °C 0,6 °C 44,9 km/h (6 Bft)
01.12.2021 18:10 5,9 °C 5,0 °C 93 % 974,3 hPa 0,0 l/m² 23,3 km/h (4 Bft) SW 225 ° 0 min 12 min 0 mm 0 W/m² 4,9 °C 1,8 °C 41,3 km/h (6 Bft)
01.12.2021 17:10 6,4 °C 5,6 °C 92 % 975,0 hPa 0,0 l/m² 28,7 km/h (4 Bft) S-SW 202 ° 0 min 10 min 0 mm 0 W/m² 5,2 °C 2,0 °C 50,2 km/h (7 Bft)
01.12.2021 16:10 7,3 °C 5,6 °C 86 % 975,4 hPa 0,0 l/m² 32,3 km/h (5 Bft) SW 225 ° 2 min 20 min 0 mm 0 W/m² 5,1 °C 2,9 °C 57,4 km/h (7 Bft)
01.12.2021 15:10 8,1 °C 6,7 °C 94 % 976,1 hPa 0,4 l/m² 25,1 km/h (4 Bft) SW 225 ° 2 min 24 min 0 mm 54 W/m² 7,2 °C 4,5 °C 43,1 km/h (6 Bft)
01.12.2021 14:10 8,2 °C 7,2 °C 98 % 977,5 hPa 0,0 l/m² 17,9 km/h (3 Bft) S 180 ° 1 min 36 min 0 mm 39 W/m² 7,9 °C 5,3 °C 28,7 km/h (4 Bft)
01.12.2021 13:10 8,0 °C 7,2 °C 100 % 978,8 hPa 0,6 l/m² 19,7 km/h (3 Bft) S 180 ° 0 min 60 min 0 mm 23 W/m² 8,0 °C 4,9 °C 25,1 km/h (4 Bft)
01.12.2021 12:10 7,9 °C 7,2 °C 100 % 980,6 hPa 0,2 l/m² 19,7 km/h (3 Bft) S-SW 202 ° 0 min 60 min 0 mm 30 W/m² 7,9 °C 4,8 °C 28,7 km/h (4 Bft)
01.12.2021 11:10 7,9 °C 7,2 °C 100 % 982,4 hPa 0,2 l/m² 14,4 km/h (3 Bft) S-SW 202 ° 0 min 51 min 0 mm 25 W/m² 7,9 °C 5,4 °C 26,9 km/h (4 Bft)
01.12.2021 10:10 8,1 °C 7,2 °C 100 % 983,7 hPa 0,0 l/m² 16,1 km/h (3 Bft) S-SW 202 ° 0 min 35 min 0 mm 18 W/m² 8,1 °C 5,4 °C 25,1 km/h (4 Bft)
01.12.2021 09:10 8,2 °C 7,8 °C 100 % 984,7 hPa 0,4 l/m² 19,7 km/h (3 Bft) S-SW 202 ° 0 min 60 min 0 mm 11 W/m² 8,2 °C 5,1 °C 37,7 km/h (5 Bft)
01.12.2021 08:10 6,7 °C 6,1 °C 100 % 986,0 hPa 0,6 l/m² 10,8 km/h (2 Bft) SO 135 ° 0 min 60 min 0 mm 0 W/m² 6,7 °C 4,5 °C 16,1 km/h (3 Bft)
01.12.2021 07:10 5,3 °C 5,0 °C 100 % 987,9 hPa 1,0 l/m² 14,4 km/h (3 Bft) S-SO 157 ° 0 min 60 min 0 mm 0 W/m² 5,3 °C 2,2 °C 21,5 km/h (4 Bft)
01.12.2021 06:10 4,7 °C 4,4 °C 100 % 990,0 hPa 0,6 l/m² 10,8 km/h (2 Bft) SO 135 ° 0 min 60 min 0 mm 0 W/m² 4,7 °C 2,1 °C 17,9 km/h (3 Bft)
01.12.2021 05:10 4,3 °C 3,9 °C 100 % 992,1 hPa 2,2 l/m² 10,8 km/h (2 Bft) O-SO 112 ° 0 min 60 min 0 mm 0 W/m² 4,3 °C 1,6 °C 17,9 km/h (3 Bft)
01.12.2021 04:10 3,7 °C 3,3 °C 99 % 994,4 hPa 1,4 l/m² 7,2 km/h (2 Bft) S-SO 157 ° 0 min 60 min 0 mm 0 W/m² 3,6 °C 1,8 °C 10,8 km/h (2 Bft)
01.12.2021 03:10 3,5 °C 2,8 °C 98 % 996,2 hPa 0,8 l/m² 5,4 km/h (1 Bft) S-SO 157 ° 0 min 57 min 0 mm 0 W/m² 3,2 °C 2,2 °C 10,8 km/h (2 Bft)
01.12.2021 02:10 3,1 °C 2,8 °C 97 % 997,8 hPa 0,0 l/m² 7,2 km/h (2 Bft) S-SO 157 ° 0 min 2 min 0 mm 0 W/m² 2,7 °C 1,1 °C 12,6 km/h (3 Bft)
01.12.2021 01:10 2,1 °C 1,7 °C 96 % 999,3 hPa 0,0 l/m² 3,6 km/h (1 Bft) S-SO 157 ° 0 min 0 min 0 mm 0 W/m² 1,5 °C 2,1 °C 3,6 km/h (1 Bft)
01.12.2021 00:10 1,5 °C 0,6 °C 93 % 1000,0 hPa 0,0 l/m² 5,4 km/h (1 Bft) S 180 ° 0 min 0 min 0 mm 0 W/m² 0,5 °C -0,1 °C 9,0 km/h (2 Bft)
30.11.2021 23:10 1,6 °C 1,7 °C 93 % 1000,9 hPa 0,0 l/m² 3,6 km/h (1 Bft) S-SW 202 ° 0 min 0 min 0 mm 0 W/m² 0,6 °C 1,6 °C 7,2 km/h (2 Bft)
30.11.2021 22:10 1,3 °C 0,0 °C 89 % 1000,7 hPa 0,0 l/m² 3,6 km/h (1 Bft) W-SW 247 ° 0 min 0 min 0 mm 0 W/m² -0,3 °C 1,3 °C 7,2 km/h (2 Bft)
30.11.2021 21:10 1,8 °C 0,6 °C 87 % 1001,0 hPa 0,0 l/m² 0,0 km/h (0 Bft) W 270 ° 0 min 0 min 0 mm 0 W/m² -0,1 °C 1,8 °C 1,8 km/h (1 Bft)
30.11.2021 20:10 2,8 °C 1,1 °C 86 % 1000,6 hPa 0,0 l/m² 1,8 km/h (1 Bft) W 270 ° 0 min 0 min 0 mm 0 W/m² 0,7 °C 2,8 °C 1,8 km/h (1 Bft)
30.11.2021 20:00 2,9 °C 1,7 °C 86 % 1000,6 hPa 0,0 l/m² 3,6 km/h (1 Bft) W 270 ° 0 min 0 min 0 mm 0 W/m² 0,8 °C 2,9 °C 7,2 km/h (2 Bft)
_ Min-Zeit 22:03 20:32 15:39 19:00 - 20:04 - - - - - - 22:03 00:26 20:12
Minimum _ 1,3 °C 0,0 °C 82 % 973,2 hPa - 0,0 km/h (0 Bft) - - - - - - -0,3 °C -1,1 °C 0,0 km/h (0 Bft)
_ Max-Zeit 14:50 09:02 04:20 21:00 02:29 18:16 - - 13:27 02:08 16:00 13:27 09:04 09:52 16:31
Maximum _ 8,3 °C 7,8 °C 100 % 1001,0 hPa 0,2 l/m² 41,3 km/h
SW (6 Bft)
- - 1 min 1 min 0 mm 128 W/m² 8,2 °C 6,3 °C 68,2 km/h
SW (8 Bft)
Durchschnitt _ 5,0 °C 4,2 °C 95 % 988,9 hPa #8,8 l/m² 12,3 km/h (3 Bft) S-SW - #5 min. #12:36 h #0,226 mm 27 W/m² 4,2 °C 3,0 °C 21,0 km/h (4 Bft)